sensor_id;sensor_type;location;lat;lon;timestamp;temperature;humidity
262;DHT22;114;48.260;10.988;2023-03-03T00:00:50;-0.90;94.00
262;DHT22;114;48.260;10.988;2023-03-03T00:03:19;-0.90;93.90
262;DHT22;114;48.260;10.988;2023-03-03T00:05:45;-1.00;93.40
262;DHT22;114;48.260;10.988;2023-03-03T00:08:11;-1.00;93.50
262;DHT22;114;48.260;10.988;2023-03-03T00:10:38;-1.10;93.20
262;DHT22;114;48.260;10.988;2023-03-03T00:13:16;-1.10;93.50
262;DHT22;114;48.260;10.988;2023-03-03T00:15:42;-1.20;93.00
262;DHT22;114;48.260;10.988;2023-03-03T00:18:20;-1.20;93.00
262;DHT22;114;48.260;10.988;2023-03-03T00:20:58;-1.20;92.80
262;DHT22;114;48.260;10.988;2023-03-03T00:23:35;-1.10;92.70
262;DHT22;114;48.260;10.988;2023-03-03T00:26:01;-1.30;92.10
262;DHT22;114;48.260;10.988;2023-03-03T00:28:38;-1.70;91.70
262;DHT22;114;48.260;10.988;2023-03-03T00:31:14;-1.40;92.10
262;DHT22;114;48.260;10.988;2023-03-03T00:33:46;-1.30;92.30
262;DHT22;114;48.260;10.988;2023-03-03T00:38:40;-1.50;92.30
262;DHT22;114;48.260;10.988;2023-03-03T00:41:22;-1.30;92.40
262;DHT22;114;48.260;10.988;2023-03-03T00:43:49;-1.50;92.10
262;DHT22;114;48.260;10.988;2023-03-03T00:46:17;-1.50;92.20
262;DHT22;114;48.260;10.988;2023-03-03T00:48:45;-1.50;92.10
262;DHT22;114;48.260;10.988;2023-03-03T00:51:28;-1.50;92.40
262;DHT22;114;48.260;10.988;2023-03-03T00:53:55;-1.50;92.40
262;DHT22;114;48.260;10.988;2023-03-03T00:56:21;-1.40;92.70
262;DHT22;114;48.260;10.988;2023-03-03T00:58:47;-1.40;92.30
262;DHT22;114;48.260;10.988;2023-03-03T01:01:14;-1.60;92.10
262;DHT22;114;48.260;10.988;2023-03-03T01:03:40;-1.60;91.70
262;DHT22;114;48.260;10.988;2023-03-03T01:06:06;-1.60;92.10
262;DHT22;114;48.260;10.988;2023-03-03T01:08:32;-1.60;92.00
262;DHT22;114;48.260;10.988;2023-03-03T01:11:03;-1.50;92.30
262;DHT22;114;48.260;10.988;2023-03-03T01:13:31;-1.60;92.20
262;DHT22;114;48.260;10.988;2023-03-03T01:15:58;-1.50;92.40
262;DHT22;114;48.260;10.988;2023-03-03T01:18:24;-1.70;92.40
262;DHT22;114;48.260;10.988;2023-03-03T01:20:50;-1.70;92.50
262;DHT22;114;48.260;10.988;2023-03-03T01:23:15;-1.60;92.80
262;DHT22;114;48.260;10.988;2023-03-03T01:25:41;-1.60;92.90
262;DHT22;114;48.260;10.988;2023-03-03T01:28:07;-1.50;92.80
262;DHT22;114;48.260;10.988;2023-03-03T01:30:33;-1.70;93.00
262;DHT22;114;48.260;10.988;2023-03-03T01:32:59;-1.60;93.10
262;DHT22;114;48.260;10.988;2023-03-03T01:35:25;-1.80;93.00
262;DHT22;114;48.260;10.988;2023-03-03T01:37:51;-1.80;93.00
262;DHT22;114;48.260;10.988;2023-03-03T01:40:24;-1.80;92.90
262;DHT22;114;48.260;10.988;2023-03-03T01:42:50;-1.80;93.20
262;DHT22;114;48.260;10.988;2023-03-03T01:45:27;-1.80;93.10
262;DHT22;114;48.260;10.988;2023-03-03T01:48:15;-1.80;93.20
262;DHT22;114;48.260;10.988;2023-03-03T01:51:01;-1.90;93.50
262;DHT22;114;48.260;10.988;2023-03-03T01:54:02;-1.80;93.50
262;DHT22;114;48.260;10.988;2023-03-03T01:56:28;-1.80;93.30
262;DHT22;114;48.260;10.988;2023-03-03T01:59:17;-1.90;93.60
262;DHT22;114;48.260;10.988;2023-03-03T02:01:46;-1.90;93.90
262;DHT22;114;48.260;10.988;2023-03-03T02:04:12;-1.90;93.90
262;DHT22;114;48.260;10.988;2023-03-03T02:06:42;-1.90;93.60
262;DHT22;114;48.260;10.988;2023-03-03T02:11:50;-2.00;93.70
262;DHT22;114;48.260;10.988;2023-03-03T02:14:16;-1.80;94.10
262;DHT22;114;48.260;10.988;2023-03-03T02:16:42;-1.80;94.10
262;DHT22;114;48.260;10.988;2023-03-03T02:19:19;-2.30;93.90
262;DHT22;114;48.260;10.988;2023-03-03T02:21:46;-1.90;94.20
262;DHT22;114;48.260;10.988;2023-03-03T02:24:41;-2.00;94.00
262;DHT22;114;48.260;10.988;2023-03-03T02:27:08;-1.80;94.30
262;DHT22;114;48.260;10.988;2023-03-03T02:29:34;-1.90;94.00
262;DHT22;114;48.260;10.988;2023-03-03T02:32:00;-2.00;93.80
262;DHT22;114;48.260;10.988;2023-03-03T02:34:26;-2.50;93.80
262;DHT22;114;48.260;10.988;2023-03-03T02:36:52;-1.90;93.80
262;DHT22;114;48.260;10.988;2023-03-03T02:39:25;-2.00;93.80
262;DHT22;114;48.260;10.988;2023-03-03T02:44:30;-2.00;94.00
262;DHT22;114;48.260;10.988;2023-03-03T02:46:57;-2.00;94.10
262;DHT22;114;48.260;10.988;2023-03-03T02:49:26;-1.90;94.70
262;DHT22;114;48.260;10.988;2023-03-03T02:51:53;-2.00;94.50
262;DHT22;114;48.260;10.988;2023-03-03T02:54:21;-1.90;94.90
262;DHT22;114;48.260;10.988;2023-03-03T02:56:47;-1.90;95.20
262;DHT22;114;48.260;10.988;2023-03-03T02:59:13;-1.90;95.70
262;DHT22;114;48.260;10.988;2023-03-03T03:01:40;-2.00;95.90
262;DHT22;114;48.260;10.988;2023-03-03T03:04:08;-1.90;95.80
262;DHT22;114;48.260;10.988;2023-03-03T03:06:35;-1.70;95.90
262;DHT22;114;48.260;10.988;2023-03-03T03:09:01;-2.00;95.40
262;DHT22;114;48.260;10.988;2023-03-03T03:11:27;-2.10;95.10
262;DHT22;114;48.260;10.988;2023-03-03T03:13:53;-2.10;94.90
262;DHT22;114;48.260;10.988;2023-03-03T03:16:19;-2.00;95.10
262;DHT22;114;48.260;10.988;2023-03-03T03:18:45;-2.10;94.90
262;DHT22;114;48.260;10.988;2023-03-03T03:21:12;-2.10;94.80
262;DHT22;114;48.260;10.988;2023-03-03T03:23:38;-2.20;94.40
262;DHT22;114;48.260;10.988;2023-03-03T03:26:05;-2.20;94.60
262;DHT22;114;48.260;10.988;2023-03-03T03:28:31;-2.00;95.00
262;DHT22;114;48.260;10.988;2023-03-03T03:30:57;-2.50;94.80
262;DHT22;114;48.260;10.988;2023-03-03T03:33:23;-2.20;94.90
262;DHT22;114;48.260;10.988;2023-03-03T03:35:50;-2.10;94.70
262;DHT22;114;48.260;10.988;2023-03-03T03:38:16;-2.10;94.70
262;DHT22;114;48.260;10.988;2023-03-03T03:40:42;-2.10;95.00
262;DHT22;114;48.260;10.988;2023-03-03T03:43:08;-2.00;94.90
262;DHT22;114;48.260;10.988;2023-03-03T03:45:34;-2.00;95.20
262;DHT22;114;48.260;10.988;2023-03-03T03:47:59;-2.00;94.80
262;DHT22;114;48.260;10.988;2023-03-03T03:50:25;-2.20;94.70
262;DHT22;114;48.260;10.988;2023-03-03T03:52:52;-1.80;95.10
262;DHT22;114;48.260;10.988;2023-03-03T03:55:17;-1.80;95.10
262;DHT22;114;48.260;10.988;2023-03-03T03:57:43;-1.70;95.00
262;DHT22;114;48.260;10.988;2023-03-03T04:00:10;-1.50;95.10
262;DHT22;114;48.260;10.988;2023-03-03T04:02:36;-1.40;95.00
262;DHT22;114;48.260;10.988;2023-03-03T04:05:02;-1.20;94.80
262;DHT22;114;48.260;10.988;2023-03-03T04:07:28;-1.30;94.60
262;DHT22;114;48.260;10.988;2023-03-03T04:09:54;-1.20;94.30
262;DHT22;114;48.260;10.988;2023-03-03T04:12:20;-1.10;94.10
262;DHT22;114;48.260;10.988;2023-03-03T04:14:46;-1.00;94.00
262;DHT22;114;48.260;10.988;2023-03-03T04:17:21;-1.30;93.60
262;DHT22;114;48.260;10.988;2023-03-03T04:19:52;-0.80;93.30
262;DHT22;114;48.260;10.988;2023-03-03T04:22:18;-0.70;92.70
262;DHT22;114;48.260;10.988;2023-03-03T04:24:43;-0.70;92.20
262;DHT22;114;48.260;10.988;2023-03-03T04:27:10;-0.60;91.80
262;DHT22;114;48.260;10.988;2023-03-03T04:29:37;-0.60;91.50
262;DHT22;114;48.260;10.988;2023-03-03T04:32:03;-0.70;91.60
262;DHT22;114;48.260;10.988;2023-03-03T04:34:29;-0.40;91.80
262;DHT22;114;48.260;10.988;2023-03-03T04:36:55;-0.10;91.40
262;DHT22;114;48.260;10.988;2023-03-03T04:39:20;-0.30;89.60
262;DHT22;114;48.260;10.988;2023-03-03T04:41:46;-0.30;88.80
262;DHT22;114;48.260;10.988;2023-03-03T04:44:12;-0.20;89.80
262;DHT22;114;48.260;10.988;2023-03-03T04:46:37;-0.20;88.10
262;DHT22;114;48.260;10.988;2023-03-03T04:49:03;-0.60;87.90
262;DHT22;114;48.260;10.988;2023-03-03T04:51:30;-0.10;87.90
262;DHT22;114;48.260;10.988;2023-03-03T04:53:56;0.00;87.70
262;DHT22;114;48.260;10.988;2023-03-03T04:56:21;0.00;88.20
262;DHT22;114;48.260;10.988;2023-03-03T04:58:47;0.20;88.10
262;DHT22;114;48.260;10.988;2023-03-03T05:01:13;0.00;87.40
262;DHT22;114;48.260;10.988;2023-03-03T05:03:39;0.00;87.10
262;DHT22;114;48.260;10.988;2023-03-03T05:06:06;0.00;88.00
262;DHT22;114;48.260;10.988;2023-03-03T05:08:32;0.10;88.60
262;DHT22;114;48.260;10.988;2023-03-03T05:10:58;0.10;88.30
262;DHT22;114;48.260;10.988;2023-03-03T05:13:27;0.10;88.80
262;DHT22;114;48.260;10.988;2023-03-03T05:15:54;0.20;89.80
262;DHT22;114;48.260;10.988;2023-03-03T05:18:21;0.20;90.00
262;DHT22;114;48.260;10.988;2023-03-03T05:20:47;0.20;89.30
262;DHT22;114;48.260;10.988;2023-03-03T05:23:13;0.30;88.90
262;DHT22;114;48.260;10.988;2023-03-03T05:25:40;0.30;89.80
262;DHT22;114;48.260;10.988;2023-03-03T05:28:07;0.40;88.60
262;DHT22;114;48.260;10.988;2023-03-03T05:30:33;0.40;89.90
262;DHT22;114;48.260;10.988;2023-03-03T05:32:59;0.50;88.70
262;DHT22;114;48.260;10.988;2023-03-03T05:35:25;0.50;88.50
262;DHT22;114;48.260;10.988;2023-03-03T05:37:51;0.50;87.80
262;DHT22;114;48.260;10.988;2023-03-03T05:40:17;0.50;86.70
262;DHT22;114;48.260;10.988;2023-03-03T05:42:44;0.70;87.80
262;DHT22;114;48.260;10.988;2023-03-03T05:45:10;0.60;85.10
262;DHT22;114;48.260;10.988;2023-03-03T05:47:36;0.70;83.80
262;DHT22;114;48.260;10.988;2023-03-03T05:50:03;0.70;82.90
262;DHT22;114;48.260;10.988;2023-03-03T05:52:29;0.60;82.30
262;DHT22;114;48.260;10.988;2023-03-03T05:54:55;0.60;83.00
262;DHT22;114;48.260;10.988;2023-03-03T05:57:21;0.70;83.70
262;DHT22;114;48.260;10.988;2023-03-03T05:59:47;0.80;83.70
262;DHT22;114;48.260;10.988;2023-03-03T06:02:13;0.80;84.10
262;DHT22;114;48.260;10.988;2023-03-03T06:04:39;0.90;80.20
262;DHT22;114;48.260;10.988;2023-03-03T06:07:05;0.90;77.50
262;DHT22;114;48.260;10.988;2023-03-03T06:09:32;0.90;78.60
262;DHT22;114;48.260;10.988;2023-03-03T06:11:58;1.10;77.10
262;DHT22;114;48.260;10.988;2023-03-03T06:14:24;1.00;75.60
262;DHT22;114;48.260;10.988;2023-03-03T06:16:49;1.00;75.30
262;DHT22;114;48.260;10.988;2023-03-03T06:19:15;0.90;75.70
262;DHT22;114;48.260;10.988;2023-03-03T06:21:41;1.00;76.10
262;DHT22;114;48.260;10.988;2023-03-03T06:24:08;1.10;76.10
262;DHT22;114;48.260;10.988;2023-03-03T06:26:34;1.10;73.80
262;DHT22;114;48.260;10.988;2023-03-03T06:29:00;1.10;74.00
262;DHT22;114;48.260;10.988;2023-03-03T06:31:26;1.10;73.60
262;DHT22;114;48.260;10.988;2023-03-03T06:33:53;1.20;74.60
262;DHT22;114;48.260;10.988;2023-03-03T06:36:19;1.20;73.60
262;DHT22;114;48.260;10.988;2023-03-03T06:38:45;1.20;73.90
262;DHT22;114;48.260;10.988;2023-03-03T06:41:11;1.30;74.40
262;DHT22;114;48.260;10.988;2023-03-03T06:43:37;1.30;73.10
262;DHT22;114;48.260;10.988;2023-03-03T06:46:04;1.20;73.20
262;DHT22;114;48.260;10.988;2023-03-03T06:48:32;1.30;72.20
262;DHT22;114;48.260;10.988;2023-03-03T06:50:59;1.40;71.50
262;DHT22;114;48.260;10.988;2023-03-03T06:53:26;1.40;70.40
262;DHT22;114;48.260;10.988;2023-03-03T06:55:55;1.40;69.80
262;DHT22;114;48.260;10.988;2023-03-03T06:58:22;1.50;68.90
262;DHT22;114;48.260;10.988;2023-03-03T07:00:58;1.50;67.20
262;DHT22;114;48.260;10.988;2023-03-03T07:03:26;1.50;65.80
262;DHT22;114;48.260;10.988;2023-03-03T07:05:54;1.50;65.80
262;DHT22;114;48.260;10.988;2023-03-03T07:08:22;1.70;65.20
262;DHT22;114;48.260;10.988;2023-03-03T07:10:49;1.80;64.40
262;DHT22;114;48.260;10.988;2023-03-03T07:15:48;1.60;65.20
262;DHT22;114;48.260;10.988;2023-03-03T07:18:33;1.70;65.30
262;DHT22;114;48.260;10.988;2023-03-03T07:21:07;1.70;65.60
262;DHT22;114;48.260;10.988;2023-03-03T07:23:38;1.70;65.50
262;DHT22;114;48.260;10.988;2023-03-03T07:26:10;1.70;65.30
262;DHT22;114;48.260;10.988;2023-03-03T07:28:40;1.70;63.60
262;DHT22;114;48.260;10.988;2023-03-03T07:33:53;1.80;63.30
262;DHT22;114;48.260;10.988;2023-03-03T07:38:57;1.80;62.20
262;DHT22;114;48.260;10.988;2023-03-03T07:41:23;1.80;62.60
262;DHT22;114;48.260;10.988;2023-03-03T07:43:53;1.90;62.60
262;DHT22;114;48.260;10.988;2023-03-03T07:48:47;1.90;59.40
262;DHT22;114;48.260;10.988;2023-03-03T07:54:13;2.00;59.20
262;DHT22;114;48.260;10.988;2023-03-03T07:56:41;2.00;57.40
262;DHT22;114;48.260;10.988;2023-03-03T07:59:20;2.00;57.80
262;DHT22;114;48.260;10.988;2023-03-03T08:01:46;1.90;60.60
262;DHT22;114;48.260;10.988;2023-03-03T08:04:31;2.00;60.40
262;DHT22;114;48.260;10.988;2023-03-03T08:07:01;2.00;59.60
262;DHT22;114;48.260;10.988;2023-03-03T08:09:43;2.10;60.50
262;DHT22;114;48.260;10.988;2023-03-03T08:14:51;2.10;57.00
262;DHT22;114;48.260;10.988;2023-03-03T08:17:22;2.10;56.70
262;DHT22;114;48.260;10.988;2023-03-03T08:19:50;2.00;58.80
262;DHT22;114;48.260;10.988;2023-03-03T08:22:30;2.10;58.80
262;DHT22;114;48.260;10.988;2023-03-03T08:24:57;2.10;59.20
262;DHT22;114;48.260;10.988;2023-03-03T08:27:23;2.20;58.10
262;DHT22;114;48.260;10.988;2023-03-03T08:29:49;2.20;56.90
262;DHT22;114;48.260;10.988;2023-03-03T08:32:15;2.30;57.60
262;DHT22;114;48.260;10.988;2023-03-03T08:34:40;2.40;54.70
262;DHT22;114;48.260;10.988;2023-03-03T08:37:06;2.40;53.70
262;DHT22;114;48.260;10.988;2023-03-03T08:39:32;2.50;53.00
262;DHT22;114;48.260;10.988;2023-03-03T08:41:58;2.60;49.80
262;DHT22;114;48.260;10.988;2023-03-03T08:44:24;2.70;50.00
262;DHT22;114;48.260;10.988;2023-03-03T08:46:49;2.90;47.60
262;DHT22;114;48.260;10.988;2023-03-03T08:49:15;3.10;45.70
262;DHT22;114;48.260;10.988;2023-03-03T08:51:41;3.20;39.80
262;DHT22;114;48.260;10.988;2023-03-03T08:54:07;3.00;41.10
262;DHT22;114;48.260;10.988;2023-03-03T08:56:32;3.20;40.40
262;DHT22;114;48.260;10.988;2023-03-03T08:58:58;3.20;40.30
262;DHT22;114;48.260;10.988;2023-03-03T09:01:24;3.40;36.90
262;DHT22;114;48.260;10.988;2023-03-03T09:03:50;3.60;37.70
262;DHT22;114;48.260;10.988;2023-03-03T09:06:16;3.80;35.70
262;DHT22;114;48.260;10.988;2023-03-03T09:08:41;4.00;29.10
262;DHT22;114;48.260;10.988;2023-03-03T09:11:14;4.40;28.40
262;DHT22;114;48.260;10.988;2023-03-03T09:13:44;4.60;22.90
262;DHT22;114;48.260;10.988;2023-03-03T09:16:13;4.50;21.10
262;DHT22;114;48.260;10.988;2023-03-03T09:18:40;4.60;20.70
262;DHT22;114;48.260;10.988;2023-03-03T09:21:22;4.60;19.30
262;DHT22;114;48.260;10.988;2023-03-03T09:23:54;4.80;18.00
262;DHT22;114;48.260;10.988;2023-03-03T09:31:50;4.90;15.90
262;DHT22;114;48.260;10.988;2023-03-03T09:37:26;5.40;14.60
262;DHT22;114;48.260;10.988;2023-03-03T09:39:56;5.40;9.10
262;DHT22;114;48.260;10.988;2023-03-03T09:42:49;5.10;10.60
262;DHT22;114;48.260;10.988;2023-03-03T09:48:00;5.30;13.10
262;DHT22;114;48.260;10.988;2023-03-03T10:21:51;6.50;3.20
262;DHT22;114;48.260;10.988;2023-03-03T10:24:27;6.40;2.90
262;DHT22;114;48.260;10.988;2023-03-03T10:27:18;6.50;2.80
262;DHT22;114;48.260;10.988;2023-03-03T10:38:25;6.90;1.00
262;DHT22;114;48.260;10.988;2023-03-03T10:43:56;6.80;1.00
262;DHT22;114;48.260;10.988;2023-03-03T10:50:09;7.30;1.00
262;DHT22;114;48.260;10.988;2023-03-03T10:55:17;8.00;1.00
262;DHT22;114;48.260;10.988;2023-03-03T10:58:09;8.70;1.00
262;DHT22;114;48.260;10.988;2023-03-03T11:12:27;8.00;1.00
262;DHT22;114;48.260;10.988;2023-03-03T11:15:57;8.00;1.00
262;DHT22;114;48.260;10.988;2023-03-03T11:25:38;8.10;1.00
262;DHT22;114;48.260;10.988;2023-03-03T11:31:26;7.60;1.00
262;DHT22;114;48.260;10.988;2023-03-03T11:39:15;8.70;1.00
262;DHT22;114;48.260;10.988;2023-03-03T11:44:41;9.30;1.00
262;DHT22;114;48.260;10.988;2023-03-03T11:50:19;9.40;1.00
262;DHT22;114;48.260;10.988;2023-03-03T11:55:36;9.20;1.00
262;DHT22;114;48.260;10.988;2023-03-03T11:58:28;8.80;1.00
262;DHT22;114;48.260;10.988;2023-03-03T12:00:56;9.10;1.00
262;DHT22;114;48.260;10.988;2023-03-03T12:03:33;9.20;1.00
262;DHT22;114;48.260;10.988;2023-03-03T12:08:52;9.80;1.00
262;DHT22;114;48.260;10.988;2023-03-03T12:27:14;12.00;1.00
262;DHT22;114;48.260;10.988;2023-03-03T12:30:05;11.90;1.00
262;DHT22;114;48.260;10.988;2023-03-03T12:33:12;12.00;1.00
262;DHT22;114;48.260;10.988;2023-03-03T12:36:00;11.50;1.00
262;DHT22;114;48.260;10.988;2023-03-03T12:38:52;11.30;1.00
262;DHT22;114;48.260;10.988;2023-03-03T12:41:42;11.30;1.00
262;DHT22;114;48.260;10.988;2023-03-03T12:44:14;11.50;1.00
262;DHT22;114;48.260;10.988;2023-03-03T12:49:53;11.70;1.00
262;DHT22;114;48.260;10.988;2023-03-03T12:55:51;10.90;1.00
262;DHT22;114;48.260;10.988;2023-03-03T13:07:04;13.50;1.00
262;DHT22;114;48.260;10.988;2023-03-03T13:15:23;11.60;1.00
262;DHT22;114;48.260;10.988;2023-03-03T13:20:43;10.30;1.00
262;DHT22;114;48.260;10.988;2023-03-03T13:29:06;9.60;1.00
262;DHT22;114;48.260;10.988;2023-03-03T13:31:46;9.50;1.00
262;DHT22;114;48.260;10.988;2023-03-03T13:37:23;9.50;1.00
262;DHT22;114;48.260;10.988;2023-03-03T13:39:53;9.50;1.00
262;DHT22;114;48.260;10.988;2023-03-03T13:53:57;9.30;1.00
262;DHT22;114;48.260;10.988;2023-03-03T13:56:39;9.40;1.00
262;DHT22;114;48.260;10.988;2023-03-03T14:08:00;9.70;1.00
262;DHT22;114;48.260;10.988;2023-03-03T14:10:35;9.80;1.00
262;DHT22;114;48.260;10.988;2023-03-03T14:13:16;10.10;1.00
262;DHT22;114;48.260;10.988;2023-03-03T14:19:18;12.10;1.00
262;DHT22;114;48.260;10.988;2023-03-03T14:22:20;13.50;1.00
262;DHT22;114;48.260;10.988;2023-03-03T14:25:08;14.00;1.00
262;DHT22;114;48.260;10.988;2023-03-03T14:30:31;13.70;1.00
262;DHT22;114;48.260;10.988;2023-03-03T14:33:04;14.10;1.00
262;DHT22;114;48.260;10.988;2023-03-03T14:36:00;14.60;1.00
262;DHT22;114;48.260;10.988;2023-03-03T14:43:38;13.40;1.00
262;DHT22;114;48.260;10.988;2023-03-03T14:46:33;12.70;1.00
262;DHT22;114;48.260;10.988;2023-03-03T14:49:12;12.30;1.00
262;DHT22;114;48.260;10.988;2023-03-03T14:51:46;12.20;1.00
262;DHT22;114;48.260;10.988;2023-03-03T14:54:36;12.00;1.00
262;DHT22;114;48.260;10.988;2023-03-03T14:57:11;11.70;1.00
262;DHT22;114;48.260;10.988;2023-03-03T14:59:40;11.00;1.00
262;DHT22;114;48.260;10.988;2023-03-03T15:04:45;10.40;1.00
262;DHT22;114;48.260;10.988;2023-03-03T15:07:34;10.20;1.00
262;DHT22;114;48.260;10.988;2023-03-03T15:10:01;10.00;1.00
262;DHT22;114;48.260;10.988;2023-03-03T15:12:35;10.00;1.00
262;DHT22;114;48.260;10.988;2023-03-03T15:15:09;10.00;1.00
262;DHT22;114;48.260;10.988;2023-03-03T15:17:42;10.00;1.00
262;DHT22;114;48.260;10.988;2023-03-03T15:23:17;9.50;1.00
262;DHT22;114;48.260;10.988;2023-03-03T15:28:35;9.30;1.00
262;DHT22;114;48.260;10.988;2023-03-03T15:36:51;9.20;1.00
262;DHT22;114;48.260;10.988;2023-03-03T15:39:30;9.00;1.00
262;DHT22;114;48.260;10.988;2023-03-03T15:42:14;9.00;1.00
262;DHT22;114;48.260;10.988;2023-03-03T15:59:01;8.00;1.00
262;DHT22;114;48.260;10.988;2023-03-03T16:04:43;7.60;1.00
262;DHT22;114;48.260;10.988;2023-03-03T16:07:25;7.40;1.00
262;DHT22;114;48.260;10.988;2023-03-03T16:10:32;7.30;1.00
262;DHT22;114;48.260;10.988;2023-03-03T16:13:08;7.20;1.00
262;DHT22;114;48.260;10.988;2023-03-03T16:19:10;6.90;1.70
262;DHT22;114;48.260;10.988;2023-03-03T16:24:38;6.60;6.40
262;DHT22;114;48.260;10.988;2023-03-03T16:27:29;6.50;7.70
262;DHT22;114;48.260;10.988;2023-03-03T16:36:05;6.10;11.40
262;DHT22;114;48.260;10.988;2023-03-03T16:38:44;6.00;12.70
262;DHT22;114;48.260;10.988;2023-03-03T16:41:26;5.90;13.40
262;DHT22;114;48.260;10.988;2023-03-03T16:46:41;5.60;16.20
262;DHT22;114;48.260;10.988;2023-03-03T16:52:12;5.40;18.70
262;DHT22;114;48.260;10.988;2023-03-03T16:55:04;5.30;20.40
262;DHT22;114;48.260;10.988;2023-03-03T17:00:29;5.20;22.60
262;DHT22;114;48.260;10.988;2023-03-03T17:03:02;5.10;23.60
262;DHT22;114;48.260;10.988;2023-03-03T17:05:43;5.00;24.40
262;DHT22;114;48.260;10.988;2023-03-03T17:10:41;4.80;25.80
262;DHT22;114;48.260;10.988;2023-03-03T17:13:47;4.70;27.40
262;DHT22;114;48.260;10.988;2023-03-03T17:16:34;4.60;28.50
262;DHT22;114;48.260;10.988;2023-03-03T17:30:48;4.10;33.10
262;DHT22;114;48.260;10.988;2023-03-03T17:33:23;3.90;35.10
262;DHT22;114;48.260;10.988;2023-03-03T17:44:21;3.60;40.60
262;DHT22;114;48.260;10.988;2023-03-03T17:46:51;3.60;42.20
262;DHT22;114;48.260;10.988;2023-03-03T17:52:18;3.50;44.20
262;DHT22;114;48.260;10.988;2023-03-03T18:11:25;2.80;55.10
262;DHT22;114;48.260;10.988;2023-03-03T18:22:33;2.50;59.00
262;DHT22;114;48.260;10.988;2023-03-03T18:25:11;2.40;60.80
262;DHT22;114;48.260;10.988;2023-03-03T18:27:43;2.40;61.90
262;DHT22;114;48.260;10.988;2023-03-03T18:30:14;2.30;63.10
262;DHT22;114;48.260;10.988;2023-03-03T18:35:25;2.10;65.40
262;DHT22;114;48.260;10.988;2023-03-03T18:37:52;2.10;66.80
262;DHT22;114;48.260;10.988;2023-03-03T18:40:28;2.00;67.40
262;DHT22;114;48.260;10.988;2023-03-03T18:42:54;2.00;68.60
262;DHT22;114;48.260;10.988;2023-03-03T18:48:10;1.80;69.20
262;DHT22;114;48.260;10.988;2023-03-03T18:50:47;1.80;70.40
262;DHT22;114;48.260;10.988;2023-03-03T18:57:16;1.60;71.10
262;DHT22;114;48.260;10.988;2023-03-03T19:02:38;1.50;72.20
262;DHT22;114;48.260;10.988;2023-03-03T19:12:56;1.30;74.70
262;DHT22;114;48.260;10.988;2023-03-03T19:18:22;1.20;76.40
262;DHT22;114;48.260;10.988;2023-03-03T19:29:14;1.00;79.30
262;DHT22;114;48.260;10.988;2023-03-03T19:34:50;0.90;79.90
262;DHT22;114;48.260;10.988;2023-03-03T19:41:19;0.80;80.70
262;DHT22;114;48.260;10.988;2023-03-03T19:46:11;0.70;82.50
262;DHT22;114;48.260;10.988;2023-03-03T19:51:34;0.60;84.20
262;DHT22;114;48.260;10.988;2023-03-03T19:54:32;0.50;83.90
262;DHT22;114;48.260;10.988;2023-03-03T19:57:02;0.50;84.70
262;DHT22;114;48.260;10.988;2023-03-03T19:59:49;0.50;85.30
262;DHT22;114;48.260;10.988;2023-03-03T20:02:43;0.60;85.90
262;DHT22;114;48.260;10.988;2023-03-03T20:05:38;0.50;84.90
262;DHT22;114;48.260;10.988;2023-03-03T20:08:27;0.50;85.70
262;DHT22;114;48.260;10.988;2023-03-03T20:11:00;0.50;85.60
262;DHT22;114;48.260;10.988;2023-03-03T20:14:10;0.40;85.30
262;DHT22;114;48.260;10.988;2023-03-03T20:16:43;0.30;85.50
262;DHT22;114;48.260;10.988;2023-03-03T20:27:34;0.20;87.80
262;DHT22;114;48.260;10.988;2023-03-03T20:43:58;0.10;88.90
262;DHT22;114;48.260;10.988;2023-03-03T20:52:30;0.10;90.60
262;DHT22;114;48.260;10.988;2023-03-03T20:57:54;-0.10;91.10
262;DHT22;114;48.260;10.988;2023-03-03T21:03:09;-0.10;91.70
262;DHT22;114;48.260;10.988;2023-03-03T21:08:40;-0.20;92.70
262;DHT22;114;48.260;10.988;2023-03-03T21:11:06;0.00;94.90
262;DHT22;114;48.260;10.988;2023-03-03T21:13:40;0.10;94.50
262;DHT22;114;48.260;10.988;2023-03-03T21:16:16;0.10;94.10
262;DHT22;114;48.260;10.988;2023-03-03T21:19:08;0.10;93.10
262;DHT22;114;48.260;10.988;2023-03-03T21:24:05;-0.10;93.00
262;DHT22;114;48.260;10.988;2023-03-03T21:29:27;-0.20;94.00
262;DHT22;114;48.260;10.988;2023-03-03T21:31:57;-0.30;93.70
262;DHT22;114;48.260;10.988;2023-03-03T21:34:38;-0.30;94.00
262;DHT22;114;48.260;10.988;2023-03-03T21:37:09;-0.40;94.20
262;DHT22;114;48.260;10.988;2023-03-03T21:39:41;-0.40;95.10
262;DHT22;114;48.260;10.988;2023-03-03T21:42:12;-0.50;95.70
262;DHT22;114;48.260;10.988;2023-03-03T21:44:49;-0.50;95.90
262;DHT22;114;48.260;10.988;2023-03-03T21:47:27;-0.50;96.30
262;DHT22;114;48.260;10.988;2023-03-03T21:49:53;-0.50;96.50
262;DHT22;114;48.260;10.988;2023-03-03T21:52:21;-0.50;97.20
262;DHT22;114;48.260;10.988;2023-03-03T21:54:48;-0.50;97.40
262;DHT22;114;48.260;10.988;2023-03-03T21:57:14;-0.50;97.70
262;DHT22;114;48.260;10.988;2023-03-03T21:59:40;-0.60;98.40
262;DHT22;114;48.260;10.988;2023-03-03T22:02:07;-0.60;98.30
262;DHT22;114;48.260;10.988;2023-03-03T22:04:33;-0.60;98.40
262;DHT22;114;48.260;10.988;2023-03-03T22:06:59;-0.60;98.80
262;DHT22;114;48.260;10.988;2023-03-03T22:09:25;-0.60;98.80
262;DHT22;114;48.260;10.988;2023-03-03T22:11:51;-0.60;98.90
262;DHT22;114;48.260;10.988;2023-03-03T22:14:17;-0.60;99.10
262;DHT22;114;48.260;10.988;2023-03-03T22:16:42;-0.70;99.10
262;DHT22;114;48.260;10.988;2023-03-03T22:19:08;-0.70;99.20
262;DHT22;114;48.260;10.988;2023-03-03T22:21:35;-0.80;99.40
262;DHT22;114;48.260;10.988;2023-03-03T22:24:01;-0.70;99.90
262;DHT22;114;48.260;10.988;2023-03-03T22:26:27;-0.60;99.90
262;DHT22;114;48.260;10.988;2023-03-03T22:28:53;-0.70;99.90
262;DHT22;114;48.260;10.988;2023-03-03T22:31:19;-0.80;99.90
262;DHT22;114;48.260;10.988;2023-03-03T22:33:46;-0.80;99.90
262;DHT22;114;48.260;10.988;2023-03-03T22:36:13;-0.60;99.90
262;DHT22;114;48.260;10.988;2023-03-03T22:38:40;-1.00;99.90
262;DHT22;114;48.260;10.988;2023-03-03T22:41:05;-0.80;99.90
262;DHT22;114;48.260;10.988;2023-03-03T22:43:31;-0.90;99.90
262;DHT22;114;48.260;10.988;2023-03-03T22:45:58;-0.90;99.90
262;DHT22;114;48.260;10.988;2023-03-03T22:48:25;-0.80;99.90
262;DHT22;114;48.260;10.988;2023-03-03T22:50:52;-0.90;99.90
262;DHT22;114;48.260;10.988;2023-03-03T22:53:18;-0.90;99.90
262;DHT22;114;48.260;10.988;2023-03-03T22:55:44;-0.80;99.90
262;DHT22;114;48.260;10.988;2023-03-03T22:58:11;-0.70;99.90
262;DHT22;114;48.260;10.988;2023-03-03T23:00:37;-0.90;99.90
262;DHT22;114;48.260;10.988;2023-03-03T23:03:05;-1.00;99.90
262;DHT22;114;48.260;10.988;2023-03-03T23:05:31;-0.90;99.90
262;DHT22;114;48.260;10.988;2023-03-03T23:07:57;-1.00;99.90
262;DHT22;114;48.260;10.988;2023-03-03T23:10:23;-0.90;99.90
262;DHT22;114;48.260;10.988;2023-03-03T23:12:49;-0.70;99.90
262;DHT22;114;48.260;10.988;2023-03-03T23:15:16;-1.00;99.90
262;DHT22;114;48.260;10.988;2023-03-03T23:17:43;-1.00;99.90
262;DHT22;114;48.260;10.988;2023-03-03T23:20:12;-1.00;99.90
262;DHT22;114;48.260;10.988;2023-03-03T23:22:38;-0.90;99.90
262;DHT22;114;48.260;10.988;2023-03-03T23:25:04;-1.10;99.90
262;DHT22;114;48.260;10.988;2023-03-03T23:27:30;-1.00;99.90